Time;durP1;ratioP1;P1;durP2;ratioP2;P2;SDS_P1;SDS_P2;PMS_P1;PMS_P2;Temp;Humidity;BMP_temperature;BMP_pressure;BME280_temperature;BME280_humidity;BME280_pressure;Samples;Min_cycle;Max_cycle;Signal;HPM_P1;HPM_P2
2022/11/08 00:01:40;;;;;;;6.35;3.05;;;;;;;;;;5072304;28;20027;-71
2022/11/08 00:04:10;;;;;;;4.70;2.72;;;;;;;;;;5072815;28;20028;-71
2022/11/08 00:14:52;;;;;;;5.18;1.70;;;;;;;;;;5072035;28;20505;-71
2022/11/08 00:17:20;;;;;;;5.05;1.92;;;;;;;;;;5072222;28;20497;-71
2022/11/08 00:19:46;;;;;;;6.00;2.53;;;;;;;;;;5072118;28;20083;-71
2022/11/08 00:22:13;;;;;;;4.72;1.67;;;;;;;;;;5071710;28;20066;-71
2022/11/08 00:24:39;;;;;;;5.20;1.92;;;;;;;;;;5072242;28;20073;-71
2022/11/08 00:27:11;;;;;;;3.30;1.77;;;;;;;;;;5072534;28;20036;-71
2022/11/08 00:29:37;;;;;;;6.07;1.70;;;;;;;;;;5071200;28;20035;-71
2022/11/08 00:32:04;;;;;;;4.88;1.90;;;;;;;;;;5072144;28;20025;-71
2022/11/08 00:34:34;;;;;;;6.28;2.38;;;;;;;;;;5072132;28;20024;-71
2022/11/08 00:37:01;;;;;;;3.95;1.88;;;;;;;;;;5071739;28;20388;-71
2022/11/08 00:39:28;;;;;;;4.07;1.55;;;;;;;;;;5071972;28;20040;-71
2022/11/08 00:41:54;;;;;;;3.35;1.50;;;;;;;;;;5072217;28;20035;-71
2022/11/08 00:44:21;;;;;;;3.85;1.65;;;;;;;;;;5071577;28;20023;-71
2022/11/08 00:46:47;;;;;;;3.63;1.77;;;;;;;;;;5071946;28;20044;-71
2022/11/08 00:49:14;;;;;;;3.42;1.48;;;;;;;;;;5071825;28;20028;-71
2022/11/08 00:51:40;;;;;;;4.28;1.75;;;;;;;;;;5071660;28;20035;-71
2022/11/08 00:54:06;;;;;;;6.22;1.95;;;;;;;;;;5072290;28;20017;-71
2022/11/08 00:56:33;;;;;;;5.63;1.88;;;;;;;;;;5072123;28;20046;-71
2022/11/08 00:58:59;;;;;;;5.35;1.88;;;;;;;;;;5071635;28;20016;-71
2022/11/08 01:01:26;;;;;;;4.60;2.08;;;;;;;;;;5072097;28;20032;-71
2022/11/08 01:03:53;;;;;;;4.57;1.95;;;;;;;;;;5072114;28;20033;-71
2022/11/08 01:06:20;;;;;;;3.42;1.80;;;;;;;;;;5071081;28;20027;-71
2022/11/08 01:08:48;;;;;;;6.47;2.38;;;;;;;;;;5071622;28;20033;-71
2022/11/08 01:11:16;;;;;;;6.45;2.33;;;;;;;;;;5073066;28;20021;-71
2022/11/08 01:13:42;;;;;;;8.32;2.10;;;;;;;;;;5075499;28;20029;-71
2022/11/08 01:16:13;;;;;;;6.57;2.00;;;;;;;;;;5075833;28;20025;-71
2022/11/08 01:18:40;;;;;;;4.18;1.60;;;;;;;;;;5075680;28;20024;-71
2022/11/08 01:21:06;;;;;;;4.82;1.65;;;;;;;;;;5074894;28;20420;-71
2022/11/08 01:23:32;;;;;;;5.78;1.90;;;;;;;;;;5075467;28;20025;-72
2022/11/08 01:26:05;;;;;;;3.83;1.90;;;;;;;;;;5075580;28;20035;-71
2022/11/08 01:28:32;;;;;;;3.65;1.80;;;;;;;;;;5075644;28;20043;-71
2022/11/08 01:31:03;;;;;;;5.18;2.13;;;;;;;;;;5075422;28;20396;-72
2022/11/08 01:33:29;;;;;;;6.50;1.95;;;;;;;;;;5075293;28;20043;-72
2022/11/08 01:35:55;;;;;;;5.03;1.90;;;;;;;;;;5075082;28;20029;-71
2022/11/08 01:38:22;;;;;;;4.75;1.92;;;;;;;;;;5075291;28;20051;-71
2022/11/08 01:40:48;;;;;;;5.78;1.98;;;;;;;;;;5075342;28;20077;-71
2022/11/08 01:43:35;;;;;;;3.25;1.63;;;;;;;;;;5074122;28;20070;-71
2022/11/08 01:46:20;;;;;;;5.55;2.08;;;;;;;;;;5074924;28;20029;-71
2022/11/08 01:48:49;;;;;;;6.15;2.17;;;;;;;;;;5074960;28;20033;-71
2022/11/08 01:51:17;;;;;;;6.47;1.92;;;;;;;;;;5075035;28;20029;-71
2022/11/08 01:53:44;;;;;;;5.22;1.75;;;;;;;;;;5074962;28;20028;-71
2022/11/08 01:56:11;;;;;;;3.83;1.92;;;;;;;;;;5074950;28;20032;-72
2022/11/08 01:58:39;;;;;;;9.45;1.88;;;;;;;;;;5074942;28;20012;-71
2022/11/08 02:01:05;;;;;;;5.65;2.03;;;;;;;;;;5074902;28;20028;-71
2022/11/08 02:03:33;;;;;;;5.32;1.80;;;;;;;;;;5056763;28;20025;-71
2022/11/08 02:06:00;;;;;;;4.00;1.95;;;;;;;;;;5074870;28;20031;-71
2022/11/08 02:08:34;;;;;;;6.85;1.52;;;;;;;;;;5074974;28;20036;-71
2022/11/08 02:11:01;;;;;;;3.38;1.60;;;;;;;;;;5074633;28;20550;-72
2022/11/08 02:13:28;;;;;;;6.05;1.92;;;;;;;;;;5074429;28;20025;-71
2022/11/08 02:15:54;;;;;;;8.75;2.13;;;;;;;;;;5074669;28;20035;-71
2022/11/08 02:18:22;;;;;;;6.72;1.80;;;;;;;;;;5074036;28;20393;-71
2022/11/08 02:20:54;;;;;;;6.22;2.00;;;;;;;;;;5074362;28;20028;-71
2022/11/08 02:23:23;;;;;;;10.02;2.10;;;;;;;;;;5074231;28;20414;-71
2022/11/08 02:25:50;;;;;;;5.15;1.95;;;;;;;;;;5074597;28;20033;-71
2022/11/08 02:28:16;;;;;;;4.47;2.10;;;;;;;;;;5074463;28;20033;-71
2022/11/08 02:30:43;;;;;;;5.82;1.80;;;;;;;;;;5074682;28;20021;-71
2022/11/08 02:33:16;;;;;;;7.93;2.17;;;;;;;;;;5074002;28;20037;-72
2022/11/08 02:35:44;;;;;;;4.90;2.05;;;;;;;;;;5074002;28;20586;-71
2022/11/08 02:38:10;;;;;;;4.85;1.75;;;;;;;;;;5074219;28;20462;-71
2022/11/08 02:40:45;;;;;;;5.03;1.98;;;;;;;;;;5074237;28;20031;-71
2022/11/08 02:43:12;;;;;;;4.55;2.58;;;;;;;;;;5072676;28;20507;-71
2022/11/08 02:45:39;;;;;;;6.75;2.28;;;;;;;;;;5073949;28;20025;-71
2022/11/08 02:48:06;;;;;;;7.75;2.38;;;;;;;;;;5073656;28;20031;-71
2022/11/08 02:50:32;;;;;;;5.53;1.80;;;;;;;;;;5073917;28;20028;-71
2022/11/08 02:52:58;;;;;;;5.32;1.75;;;;;;;;;;5073917;28;20032;-71
2022/11/08 02:55:25;;;;;;;3.75;1.73;;;;;;;;;;5072796;28;20028;-71
2022/11/08 02:57:51;;;;;;;3.97;2.00;;;;;;;;;;5072891;28;20031;-72
2022/11/08 03:00:17;;;;;;;3.33;1.73;;;;;;;;;;5073799;28;20035;-71
2022/11/08 03:02:44;;;;;;;3.28;1.63;;;;;;;;;;5073348;28;20434;-71
2022/11/08 03:05:10;;;;;;;4.63;1.77;;;;;;;;;;5073561;28;20474;-71
2022/11/08 03:07:36;;;;;;;4.70;1.77;;;;;;;;;;5073642;28;20040;-71
2022/11/08 03:10:03;;;;;;;4.68;1.75;;;;;;;;;;5072059;28;20481;-71
2022/11/08 03:12:29;;;;;;;5.13;1.60;;;;;;;;;;5073486;28;20043;-71
2022/11/08 03:14:55;;;;;;;6.25;1.92;;;;;;;;;;5073116;28;20451;-71
2022/11/08 03:17:22;;;;;;;4.63;1.70;;;;;;;;;;5071638;28;20035;-71
2022/11/08 03:19:48;;;;;;;6.10;1.88;;;;;;;;;;5073163;28;20031;-71
2022/11/08 03:22:15;;;;;;;9.45;2.28;;;;;;;;;;5073383;28;20473;-71
2022/11/08 03:24:41;;;;;;;4.88;1.70;;;;;;;;;;5073299;28;20020;-71
2022/11/08 03:27:07;;;;;;;6.10;1.90;;;;;;;;;;5072051;28;20042;-71
2022/11/08 03:29:33;;;;;;;9.13;2.00;;;;;;;;;;5073083;28;20013;-71
2022/11/08 03:32:00;;;;;;;5.70;1.80;;;;;;;;;;5072817;28;20404;-71
2022/11/08 03:34:26;;;;;;;9.70;1.73;;;;;;;;;;5072722;28;20017;-71
2022/11/08 03:36:52;;;;;;;4.43;1.98;;;;;;;;;;5073049;28;20050;-71
2022/11/08 03:39:19;;;;;;;5.38;1.85;;;;;;;;;;5073184;28;20028;-71
2022/11/08 03:41:45;;;;;;;7.43;2.13;;;;;;;;;;5072904;28;20485;-71
2022/11/08 03:44:11;;;;;;;6.30;2.10;;;;;;;;;;5072895;28;20031;-71
2022/11/08 03:46:38;;;;;;;5.70;2.13;;;;;;;;;;5072400;28;20021;-71
2022/11/08 03:49:04;;;;;;;5.18;2.15;;;;;;;;;;5073141;28;20065;-71
2022/11/08 03:51:30;;;;;;;6.22;2.10;;;;;;;;;;5072797;28;20363;-71
2022/11/08 03:53:57;;;;;;;4.35;1.92;;;;;;;;;;5072686;28;20024;-71
2022/11/08 03:56:23;;;;;;;5.15;1.90;;;;;;;;;;5072505;28;20023;-71
2022/11/08 03:58:50;;;;;;;8.60;2.20;;;;;;;;;;5072702;28;20033;-71
2022/11/08 04:01:16;;;;;;;6.93;1.95;;;;;;;;;;5072320;28;20020;-71
2022/11/08 04:03:42;;;;;;;6.30;2.38;;;;;;;;;;5071411;28;20031;-71
2022/11/08 04:06:08;;;;;;;7.80;2.03;;;;;;;;;;5072531;28;20032;-71
2022/11/08 04:08:35;;;;;;;5.85;2.20;;;;;;;;;;5072242;28;20032;-71
2022/11/08 04:15:13;;;;;;;4.63;2.00;;;;;;;;;;5071264;28;20028;-71
2022/11/08 04:16:33;;;;;;;10.77;1.90;;;;;;;;;;5072139;28;20032;-71
2022/11/08 04:21:46;;;;;;;6.47;2.42;;;;;;;;;;5070973;28;20040;-71
2022/11/08 04:24:13;;;;;;;4.47;2.20;;;;;;;;;;5072322;28;20029;-71
2022/11/08 04:26:40;;;;;;;7.03;1.92;;;;;;;;;;5071167;28;20085;-70
2022/11/08 04:29:06;;;;;;;6.88;2.45;;;;;;;;;;5071987;28;20024;-70
2022/11/08 04:31:33;;;;;;;8.05;4.00;;;;;;;;;;5071010;28;20046;-70
2022/11/08 04:33:59;;;;;;;8.52;3.20;;;;;;;;;;5072154;28;20020;-70
2022/11/08 04:36:25;;;;;;;7.22;3.20;;;;;;;;;;5072101;28;20470;-70
2022/11/08 04:38:52;;;;;;;12.57;3.38;;;;;;;;;;5072259;28;20037;-71
2022/11/08 04:41:19;;;;;;;7.82;3.13;;;;;;;;;;5072070;28;20039;-70
2022/11/08 04:43:46;;;;;;;4.80;2.22;;;;;;;;;;5071312;28;20050;-71
2022/11/08 04:46:15;;;;;;;8.15;2.92;;;;;;;;;;5070974;28;20408;-70
2022/11/08 04:48:41;;;;;;;4.93;3.25;;;;;;;;;;5071927;28;20033;-71
2022/11/08 04:51:12;;;;;;;8.15;4.07;;;;;;;;;;5071881;28;20025;-70
2022/11/08 04:53:39;;;;;;;5.47;2.85;;;;;;;;;;5070617;28;20027;-71
2022/11/08 04:56:18;;;;;;;5.70;3.42;;;;;;;;;;5071862;28;20028;-70
2022/11/08 04:58:45;;;;;;;7.07;2.92;;;;;;;;;;5071857;28;20013;-71
2022/11/08 05:01:13;;;;;;;6.60;2.97;;;;;;;;;;5071793;28;20392;-71
2022/11/08 05:03:40;;;;;;;7.05;3.40;;;;;;;;;;5072143;28;20393;-71
2022/11/08 05:06:07;;;;;;;6.68;2.63;;;;;;;;;;5072371;28;20114;-72
2022/11/08 05:08:34;;;;;;;5.10;2.40;;;;;;;;;;5071808;28;20063;-71
2022/11/08 05:11:04;;;;;;;6.53;2.92;;;;;;;;;;5071760;28;20110;-71
2022/11/08 05:13:31;;;;;;;8.13;2.60;;;;;;;;;;5071118;28;20024;-71
2022/11/08 05:16:16;;;;;;;6.50;2.83;;;;;;;;;;5071667;28;20036;-71
2022/11/08 05:18:43;;;;;;;5.43;3.10;;;;;;;;;;5071595;28;20021;-71
2022/11/08 05:24:00;;;;;;;7.18;3.20;;;;;;;;;;5071594;28;20017;-71
2022/11/08 05:26:26;;;;;;;5.20;2.72;;;;;;;;;;5070019;28;20027;-71
2022/11/08 05:28:52;;;;;;;4.03;3.22;;;;;;;;;;5071704;28;20400;-71
2022/11/08 05:31:19;;;;;;;5.28;2.50;;;;;;;;;;5071765;28;20025;-71
2022/11/08 05:33:45;;;;;;;7.15;2.80;;;;;;;;;;5071440;28;20029;-71
2022/11/08 05:36:13;;;;;;;4.13;2.13;;;;;;;;;;5071375;28;20404;-71
2022/11/08 05:38:40;;;;;;;11.15;2.20;;;;;;;;;;5071879;28;20025;-71
2022/11/08 05:41:06;;;;;;;5.70;2.53;;;;;;;;;;5071055;28;20077;-71
2022/11/08 05:43:33;;;;;;;9.90;2.88;;;;;;;;;;5071322;28;20031;-71
2022/11/08 05:45:59;;;;;;;8.18;2.47;;;;;;;;;;5070110;28;20050;-71
2022/11/08 05:48:26;;;;;;;7.45;2.22;;;;;;;;;;5071065;28;20039;-71
2022/11/08 05:50:52;;;;;;;6.90;2.50;;;;;;;;;;5071335;28;20021;-71
2022/11/08 05:53:19;;;;;;;6.35;2.22;;;;;;;;;;5071427;28;20032;-71
2022/11/08 05:55:45;;;;;;;13.13;4.93;;;;;;;;;;5070943;28;20025;-71
2022/11/08 05:58:12;;;;;;;6.30;2.30;;;;;;;;;;5073911;28;20025;-71
2022/11/08 06:00:38;;;;;;;5.20;2.20;;;;;;;;;;5074917;28;20086;-71
2022/11/08 06:03:05;;;;;;;4.45;2.13;;;;;;;;;;5075049;28;20016;-71
2022/11/08 06:05:32;;;;;;;5.78;3.10;;;;;;;;;;5074738;28;20035;-71
2022/11/08 06:07:58;;;;;;;4.88;2.50;;;;;;;;;;5074733;28;20105;-72
2022/11/08 06:10:25;;;;;;;8.77;2.97;;;;;;;;;;5074489;28;20031;-71
2022/11/08 06:12:51;;;;;;;8.77;3.05;;;;;;;;;;5075282;28;20029;-71
2022/11/08 06:15:18;;;;;;;8.43;3.42;;;;;;;;;;5074942;28;20051;-72
2022/11/08 06:17:44;;;;;;;7.47;2.60;;;;;;;;;;5074834;28;20039;-72
2022/11/08 06:20:14;;;;;;;4.57;2.17;;;;;;;;;;5074731;28;20017;-72
2022/11/08 06:22:42;;;;;;;4.43;1.85;;;;;;;;;;5074736;28;20035;-71
2022/11/08 06:25:09;;;;;;;7.07;2.67;;;;;;;;;;5074117;28;20252;-72
2022/11/08 06:27:35;;;;;;;7.57;2.25;;;;;;;;;;5074330;28;20482;-72
2022/11/08 06:30:03;;;;;;;5.72;2.30;;;;;;;;;;5073363;28;20027;-71
2022/11/08 06:32:30;;;;;;;5.43;2.58;;;;;;;;;;5074271;28;20028;-72
2022/11/08 06:34:56;;;;;;;5.25;2.50;;;;;;;;;;5074733;28;20021;-72
2022/11/08 06:37:22;;;;;;;10.55;2.53;;;;;;;;;;5074623;28;20069;-72
2022/11/08 06:39:49;;;;;;;4.63;2.20;;;;;;;;;;5073723;28;20029;-71
2022/11/08 06:42:15;;;;;;;4.60;2.63;;;;;;;;;;5074102;28;20042;-72
2022/11/08 06:44:41;;;;;;;4.40;2.22;;;;;;;;;;5074303;28;20050;-71
2022/11/08 06:47:08;;;;;;;8.02;2.85;;;;;;;;;;5074141;28;20036;-71
2022/11/08 06:49:36;;;;;;;6.53;2.25;;;;;;;;;;5074226;28;20031;-72
2022/11/08 06:52:02;;;;;;;6.38;2.83;;;;;;;;;;5073830;28;20028;-71
2022/11/08 06:54:28;;;;;;;6.68;2.65;;;;;;;;;;5073295;28;20032;-72
2022/11/08 06:56:55;;;;;;;5.78;2.60;;;;;;;;;;5074201;28;20020;-71
2022/11/08 06:59:22;;;;;;;7.93;2.83;;;;;;;;;;5074103;28;20027;-72
2022/11/08 07:01:48;;;;;;;4.30;2.80;;;;;;;;;;5073244;28;20490;-72
2022/11/08 07:04:14;;;;;;;5.82;2.75;;;;;;;;;;5073169;28;20027;-71
2022/11/08 07:06:41;;;;;;;4.55;2.90;;;;;;;;;;5073358;28;20035;-72
2022/11/08 07:09:07;;;;;;;6.13;3.30;;;;;;;;;;5071414;28;20036;-72
2022/11/08 07:11:33;;;;;;;9.77;3.08;;;;;;;;;;5073540;28;20047;-72
2022/11/08 07:14:00;;;;;;;8.77;4.30;;;;;;;;;;5072435;28;20048;-71
2022/11/08 07:16:26;;;;;;;6.30;3.55;;;;;;;;;;5066602;28;20497;-72
2022/11/08 07:18:54;;;;;;;7.50;3.13;;;;;;;;;;5062955;28;20035;-72
2022/11/08 07:21:21;;;;;;;4.93;3.20;;;;;;;;;;5066091;28;20759;-72
2022/11/08 07:23:48;;;;;;;6.97;3.40;;;;;;;;;;5070978;28;20032;-72
2022/11/08 07:26:14;;;;;;;6.63;2.67;;;;;;;;;;5070300;28;20024;-72
2022/11/08 07:28:41;;;;;;;6.47;3.20;;;;;;;;;;5072427;28;20033;-72
2022/11/08 07:31:08;;;;;;;11.85;4.05;;;;;;;;;;5066974;28;20570;-72
2022/11/08 07:33:35;;;;;;;7.78;4.10;;;;;;;;;;5072226;28;20026;-71
2022/11/08 07:36:01;;;;;;;5.15;3.42;;;;;;;;;;5072700;28;20013;-71
2022/11/08 07:38:27;;;;;;;7.70;3.38;;;;;;;;;;5071087;28;20041;-71
2022/11/08 07:40:57;;;;;;;4.03;3.20;;;;;;;;;;5073132;28;20031;-72
2022/11/08 07:43:24;;;;;;;3.65;3.00;;;;;;;;;;5071391;28;20033;-73
2022/11/08 07:45:58;;;;;;;4.90;3.08;;;;;;;;;;5067001;28;20087;-71
2022/11/08 07:48:24;;;;;;;5.28;2.85;;;;;;;;;;5052066;28;20037;-71
2022/11/08 07:50:51;;;;;;;6.57;3.38;;;;;;;;;;5052198;28;20025;-72
2022/11/08 07:53:17;;;;;;;5.07;2.80;;;;;;;;;;5052469;28;20033;-73
2022/11/08 07:55:44;;;;;;;7.68;3.13;;;;;;;;;;5052556;28;20017;-72
2022/11/08 07:58:11;;;;;;;6.75;3.15;;;;;;;;;;5064302;28;20027;-72
2022/11/08 08:00:38;;;;;;;5.28;3.72;;;;;;;;;;5080686;28;20396;-72
2022/11/08 08:03:06;;;;;;;5.88;3.05;;;;;;;;;;5088076;28;20016;-72
2022/11/08 08:05:34;;;;;;;5.30;3.00;;;;;;;;;;5069191;28;20070;-72
2022/11/08 08:08:01;;;;;;;5.28;2.88;;;;;;;;;;5069012;28;20047;-73
2022/11/08 08:10:28;;;;;;;6.68;3.08;;;;;;;;;;5072483;28;20971;-72
2022/11/08 08:12:55;;;;;;;4.82;2.53;;;;;;;;;;5071961;28;20031;-72
2022/11/08 08:15:21;;;;;;;7.25;3.17;;;;;;;;;;5070858;28;20033;-72
2022/11/08 08:17:48;;;;;;;3.90;2.22;;;;;;;;;;5071382;28;20028;-71
2022/11/08 08:20:14;;;;;;;6.28;3.28;;;;;;;;;;5069444;28;20026;-72
2022/11/08 08:22:48;;;;;;;6.43;2.63;;;;;;;;;;5070818;28;20024;-73
2022/11/08 08:25:14;;;;;;;9.90;2.28;;;;;;;;;;5071795;28;20021;-72
2022/11/08 08:27:46;;;;;;;7.07;3.10;;;;;;;;;;5067756;28;20032;-72
2022/11/08 08:30:12;;;;;;;5.72;3.08;;;;;;;;;;5069897;28;20054;-72
2022/11/08 08:32:38;;;;;;;4.70;2.88;;;;;;;;;;5069120;28;20039;-72
2022/11/08 08:35:05;;;;;;;5.40;2.53;;;;;;;;;;5076422;28;20043;-71
2022/11/08 08:37:31;;;;;;;4.30;2.08;;;;;;;;;;5070044;28;20017;-71
2022/11/08 08:39:57;;;;;;;6.22;2.65;;;;;;;;;;5070372;28;20531;-72
2022/11/08 08:42:24;;;;;;;4.38;2.60;;;;;;;;;;5072018;28;20035;-72
2022/11/08 08:44:50;;;;;;;3.33;2.42;;;;;;;;;;5070296;28;20102;-72
2022/11/08 08:47:16;;;;;;;10.77;7.05;;;;;;;;;;5070845;28;20493;-71
2022/11/08 08:49:43;;;;;;;7.88;4.18;;;;;;;;;;5070264;28;20028;-71
2022/11/08 08:52:09;;;;;;;5.40;3.00;;;;;;;;;;5069522;28;20043;-71
2022/11/08 08:54:35;;;;;;;3.83;2.22;;;;;;;;;;5070646;28;20021;-71
2022/11/08 08:57:01;;;;;;;3.83;2.50;;;;;;;;;;5069439;28;20400;-71
2022/11/08 08:59:28;;;;;;;3.38;2.00;;;;;;;;;;5068225;28;20027;-72
2022/11/08 09:01:55;;;;;;;8.10;2.17;;;;;;;;;;5068441;28;20036;-72
2022/11/08 09:04:21;;;;;;;5.25;2.60;;;;;;;;;;5069462;28;20041;-72
2022/11/08 09:06:48;;;;;;;3.80;2.55;;;;;;;;;;5068298;28;20021;-71
2022/11/08 09:09:14;;;;;;;3.95;2.30;;;;;;;;;;5069034;28;20037;-71
2022/11/08 09:11:40;;;;;;;3.03;1.77;;;;;;;;;;5070474;28;20033;-71
2022/11/08 09:14:07;;;;;;;5.38;2.53;;;;;;;;;;5070253;28;20052;-71
2022/11/08 09:16:33;;;;;;;9.40;2.70;;;;;;;;;;5070346;28;20035;-71
2022/11/08 09:18:59;;;;;;;4.72;2.00;;;;;;;;;;5070137;28;20020;-72
2022/11/08 09:21:25;;;;;;;3.95;2.50;;;;;;;;;;5066452;28;20106;-70
2022/11/08 09:23:52;;;;;;;5.43;2.03;;;;;;;;;;5069270;28;20021;-70
2022/11/08 09:26:19;;;;;;;4.55;2.30;;;;;;;;;;5070618;28;20052;-71
2022/11/08 09:28:46;;;;;;;3.80;2.28;;;;;;;;;;5069881;28;20066;-72
2022/11/08 09:37:45;;;;;;;4.65;2.72;;;;;;;;;;5106186;27;1329780;-72
2022/11/08 09:40:16;;;;;;;4.43;2.25;;;;;;;;;;5128835;28;20023;-75
2022/11/08 09:42:49;;;;;;;9.07;2.55;;;;;;;;;;5119614;28;20016;-73
2022/11/08 09:45:25;;;;;;;5.13;2.13;;;;;;;;;;5121780;28;20037;-76
2022/11/08 09:48:03;;;;;;;6.47;2.45;;;;;;;;;;5128362;28;20080;-79
2022/11/08 09:50:30;;;;;;;7.55;2.30;;;;;;;;;;5128916;28;20068;-77
2022/11/08 09:53:17;;;;;;;6.10;2.70;;;;;;;;;;5128585;28;20015;-76
2022/11/08 09:55:54;;;;;;;3.45;2.33;;;;;;;;;;5118399;27;20430;-73
2022/11/08 09:58:23;;;;;;;3.13;2.55;;;;;;;;;;5114449;28;20032;-89
2022/11/08 10:00:50;;;;;;;5.33;2.03;;;;;;;;;;5127936;27;20509;-80
2022/11/08 10:03:17;;;;;;;7.80;2.42;;;;;;;;;;5118024;28;20034;-82
2022/11/08 10:05:50;;;;;;;5.97;2.42;;;;;;;;;;5106712;28;20034;-68
2022/11/08 10:08:19;;;;;;;5.72;2.25;;;;;;;;;;5106752;28;20023;-79
2022/11/08 10:11:02;;;;;;;3.58;2.13;;;;;;;;;;5108098;28;20027;-75
2022/11/08 10:13:31;;;;;;;3.30;1.92;;;;;;;;;;5107892;28;20020;-76
2022/11/08 10:15:57;;;;;;;4.57;2.45;;;;;;;;;;5117419;28;20036;-76
2022/11/08 10:18:30;;;;;;;2.88;1.92;;;;;;;;;;5106750;28;20023;-76
2022/11/08 10:21:07;;;;;;;4.85;2.05;;;;;;;;;;5121337;28;20445;-68
2022/11/08 10:23:35;;;;;;;6.20;2.22;;;;;;;;;;5127534;28;20027;-77
2022/11/08 10:26:07;;;;;;;4.55;1.85;;;;;;;;;;5128029;28;20027;-67
2022/11/08 10:28:36;;;;;;;4.55;1.90;;;;;;;;;;5128075;28;20028;-75
2022/11/08 10:31:02;;;;;;;2.58;2.30;;;;;;;;;;5125621;28;20092;-68
2022/11/08 10:33:32;;;;;;;4.97;2.25;;;;;;;;;;5120493;28;20027;-74
2022/11/08 10:36:01;;;;;;;3.17;1.92;;;;;;;;;;5107374;28;20522;-75
2022/11/08 10:38:31;;;;;;;4.55;3.45;;;;;;;;;;5110383;28;20024;-75
2022/11/08 10:41:00;;;;;;;3.83;2.42;;;;;;;;;;5122270;28;20072;-67
2022/11/08 10:43:33;;;;;;;6.88;2.10;;;;;;;;;;5126930;28;20037;-73
2022/11/08 10:46:00;;;;;;;3.88;2.30;;;;;;;;;;5109852;27;20024;-74
2022/11/08 10:48:26;;;;;;;6.22;2.17;;;;;;;;;;5097124;28;20032;-73
2022/11/08 10:50:54;;;;;;;4.03;2.00;;;;;;;;;;5105834;28;20035;-75
2022/11/08 10:53:28;;;;;;;3.17;1.83;;;;;;;;;;5095170;28;20023;-67
2022/11/08 10:56:01;;;;;;;2.58;1.70;;;;;;;;;;5099676;28;20144;-90
2022/11/08 10:58:31;;;;;;;2.83;2.38;;;;;;;;;;5114085;28;20027;-74
2022/11/08 11:01:16;;;;;;;2.33;1.95;;;;;;;;;;5113464;28;20023;-74
2022/11/08 11:03:43;;;;;;;7.13;2.15;;;;;;;;;;5113650;28;20024;-74
2022/11/08 11:06:26;;;;;;;3.70;1.80;;;;;;;;;;5113664;28;20022;-75
2022/11/08 11:08:59;;;;;;;4.07;2.20;;;;;;;;;;5113295;28;20030;-71
2022/11/08 11:11:34;;;;;;;3.97;1.48;;;;;;;;;;5113479;28;20399;-78
2022/11/08 11:14:14;;;;;;;4.40;1.60;;;;;;;;;;5112361;28;20028;-75
2022/11/08 11:17:07;;;;;;;3.83;1.73;;;;;;;;;;5092083;28;20032;-77
2022/11/08 11:19:34;;;;;;;6.50;1.88;;;;;;;;;;5092116;28;20044;-76
2022/11/08 11:22:05;;;;;;;3.08;1.85;;;;;;;;;;5113780;28;20030;-75
2022/11/08 11:24:33;;;;;;;4.80;1.85;;;;;;;;;;5113160;28;20030;-76
2022/11/08 11:27:02;;;;;;;3.85;1.90;;;;;;;;;;5113272;28;20023;-76
2022/11/08 11:29:35;;;;;;;3.40;1.70;;;;;;;;;;5112370;28;20028;-76
2022/11/08 11:32:22;;;;;;;5.63;1.80;;;;;;;;;;5113082;28;20026;-75
2022/11/08 11:34:51;;;;;;;5.35;2.00;;;;;;;;;;5112608;28;20589;-69
2022/11/08 11:37:24;;;;;;;3.55;2.10;;;;;;;;;;5113170;28;20043;-72
2022/11/08 11:40:10;;;;;;;2.88;1.75;;;;;;;;;;5113212;28;20411;-73
2022/11/08 11:42:45;;;;;;;5.32;1.90;;;;;;;;;;5113439;28;20026;-72
2022/11/08 11:45:28;;;;;;;4.68;2.17;;;;;;;;;;5101917;28;20507;-72
2022/11/08 11:47:56;;;;;;;3.83;1.88;;;;;;;;;;5092738;28;20031;-66
2022/11/08 11:50:35;;;;;;;5.75;2.10;;;;;;;;;;5092087;28;20013;-73
2022/11/08 11:53:15;;;;;;;4.05;2.10;;;;;;;;;;5091371;28;20032;-72
2022/11/08 11:55:41;;;;;;;4.22;1.98;;;;;;;;;;5104774;28;20031;-71
2022/11/08 11:58:24;;;;;;;5.18;2.38;;;;;;;;;;5112910;28;20027;-73
2022/11/08 12:00:57;;;;;;;5.13;2.00;;;;;;;;;;5112059;28;20026;-72
2022/11/08 12:03:45;;;;;;;2.88;1.98;;;;;;;;;;5100401;28;20388;-66
2022/11/08 12:06:20;;;;;;;5.93;1.85;;;;;;;;;;5092242;28;20028;-66
2022/11/08 12:08:52;;;;;;;3.72;2.00;;;;;;;;;;5092357;28;20085;-75
2022/11/08 12:11:18;;;;;;;4.55;2.10;;;;;;;;;;5092133;28;20373;-73
2022/11/08 12:13:45;;;;;;;8.68;2.30;;;;;;;;;;5092087;28;20020;-73
2022/11/08 12:16:16;;;;;;;4.82;1.95;;;;;;;;;;5092257;28;20042;-72
2022/11/08 12:18:43;;;;;;;5.78;1.98;;;;;;;;;;5092372;28;20020;-73
2022/11/08 12:21:13;;;;;;;7.60;1.90;;;;;;;;;;5091704;28;20043;-66
2022/11/08 12:23:49;;;;;;;3.83;1.60;;;;;;;;;;5092105;28;20027;-68
2022/11/08 12:26:34;;;;;;;4.63;1.77;;;;;;;;;;5092165;28;20042;-73
2022/11/08 12:29:03;;;;;;;3.38;1.90;;;;;;;;;;5090894;28;20484;-75
2022/11/08 12:31:32;;;;;;;3.78;1.90;;;;;;;;;;5092004;28;20032;-72
2022/11/08 12:34:09;;;;;;;3.45;2.03;;;;;;;;;;5092163;28;20012;-72
2022/11/08 12:36:36;;;;;;;5.85;1.95;;;;;;;;;;5090414;28;20046;-72
2022/11/08 12:39:14;;;;;;;5.03;2.42;;;;;;;;;;5096838;28;20028;-72
2022/11/08 12:41:53;;;;;;;6.32;1.95;;;;;;;;;;5098240;28;20020;-65
2022/11/08 12:44:31;;;;;;;3.63;2.17;;;;;;;;;;5105720;28;20024;-68
2022/11/08 12:47:11;;;;;;;3.92;2.17;;;;;;;;;;5097763;28;20027;-72
2022/11/08 12:49:41;;;;;;;4.47;2.10;;;;;;;;;;5106952;28;20026;-72
2022/11/08 12:52:07;;;;;;;4.80;2.22;;;;;;;;;;5112224;28;20031;-67
2022/11/08 12:54:36;;;;;;;3.35;1.90;;;;;;;;;;5112015;28;20036;-72
2022/11/08 12:57:04;;;;;;;2.92;1.98;;;;;;;;;;5111398;28;20764;-72
2022/11/08 12:59:37;;;;;;;7.00;2.08;;;;;;;;;;5111843;28;20015;-72
2022/11/08 13:02:05;;;;;;;4.55;2.05;;;;;;;;;;5105473;28;20028;-69
2022/11/08 13:04:50;;;;;;;3.50;1.80;;;;;;;;;;5091008;28;20030;-72
2022/11/08 13:07:16;;;;;;;3.50;1.80;;;;;;;;;;5101755;28;20031;-69
2022/11/08 13:09:54;;;;;;;6.40;2.03;;;;;;;;;;5090200;28;20024;-64
2022/11/08 13:12:27;;;;;;;4.88;2.00;;;;;;;;;;5097215;28;20023;-72
2022/11/08 13:14:53;;;;;;;3.13;1.92;;;;;;;;;;5111535;28;20030;-71
2022/11/08 13:17:27;;;;;;;3.97;1.90;;;;;;;;;;5103773;28;20038;-71
2022/11/08 13:19:55;;;;;;;8.90;3.75;;;;;;;;;;5108128;28;20042;-72
2022/11/08 13:22:31;;;;;;;7.80;3.33;;;;;;;;;;5111076;28;20034;-72
2022/11/08 13:25:03;;;;;;;3.70;2.30;;;;;;;;;;5107970;28;20557;-70
2022/11/08 13:27:35;;;;;;;5.95;2.13;;;;;;;;;;5108238;28;20020;-71
2022/11/08 13:30:05;;;;;;;3.58;1.75;;;;;;;;;;5111272;28;20016;-64
2022/11/08 13:32:43;;;;;;;7.43;1.83;;;;;;;;;;5106866;28;20028;-69
2022/11/08 13:35:22;;;;;;;5.88;2.03;;;;;;;;;;5111109;28;20024;-64
2022/11/08 13:38:08;;;;;;;4.53;1.80;;;;;;;;;;5111113;28;20047;-63
2022/11/08 13:40:55;;;;;;;4.20;1.70;;;;;;;;;;5077731;28;20040;-63
2022/11/08 13:43:21;;;;;;;5.25;1.90;;;;;;;;;;5086599;28;20032;-64
2022/11/08 13:45:48;;;;;;;8.07;1.65;;;;;;;;;;5104486;28;20035;-62
2022/11/08 13:48:24;;;;;;;5.72;2.00;;;;;;;;;;5092764;28;20514;-64
2022/11/08 13:50:52;;;;;;;2.75;1.77;;;;;;;;;;5110203;28;20027;-64
2022/11/08 13:53:18;;;;;;;5.00;1.60;;;;;;;;;;5108925;28;20032;-64
2022/11/08 13:55:47;;;;;;;4.18;2.28;;;;;;;;;;5110667;28;20046;-61
2022/11/08 13:58:32;;;;;;;2.72;1.50;;;;;;;;;;5106072;28;20711;-64
2022/11/08 14:00:59;;;;;;;2.05;1.70;;;;;;;;;;5110746;28;20388;-61
2022/11/08 14:03:34;;;;;;;2.53;1.48;;;;;;;;;;5111008;28;20105;-64
2022/11/08 14:06:19;;;;;;;3.42;1.45;;;;;;;;;;5111070;28;20019;-64
2022/11/08 14:08:57;;;;;;;2.97;1.20;;;;;;;;;;5110647;28;20020;-61
2022/11/08 14:11:26;;;;;;;4.53;1.30;;;;;;;;;;5110969;28;20020;-61
2022/11/08 14:14:11;;;;;;;3.28;1.55;;;;;;;;;;5106654;28;20047;-62
2022/11/08 14:16:42;;;;;;;4.30;1.40;;;;;;;;;;5089971;28;20028;-62
2022/11/08 14:19:16;;;;;;;2.70;1.30;;;;;;;;;;5110730;28;20024;-64
2022/11/08 14:21:49;;;;;;;6.72;1.88;;;;;;;;;;5108399;28;20045;-64
2022/11/08 14:24:18;;;;;;;5.20;2.13;;;;;;;;;;5112775;28;20430;-63
2022/11/08 14:26:45;;;;;;;5.45;1.80;;;;;;;;;;5113044;28;20023;-63
2022/11/08 14:29:15;;;;;;;4.25;2.03;;;;;;;;;;5114402;28;20023;-62
2022/11/08 14:31:42;;;;;;;3.33;1.60;;;;;;;;;;5102545;28;20032;-63
2022/11/08 14:34:26;;;;;;;6.00;1.77;;;;;;;;;;5094048;28;20034;-63
2022/11/08 14:36:55;;;;;;;7.93;1.98;;;;;;;;;;5094011;28;20048;-63
2022/11/08 14:39:25;;;;;;;3.45;1.60;;;;;;;;;;5092517;28;20090;-64
2022/11/08 14:41:52;;;;;;;4.70;1.80;;;;;;;;;;5109957;28;20049;-62
2022/11/08 14:44:19;;;;;;;1.90;1.40;;;;;;;;;;5114093;28;20379;-63
2022/11/08 14:46:45;;;;;;;3.28;1.40;;;;;;;;;;5106638;28;20038;-64
2022/11/08 14:49:14;;;;;;;2.25;1.40;;;;;;;;;;5109834;28;20042;-63
2022/11/08 14:51:42;;;;;;;4.47;1.63;;;;;;;;;;5114703;28;20068;-62
2022/11/08 14:54:23;;;;;;;5.25;1.75;;;;;;;;;;5114737;28;20024;-64
2022/11/08 14:56:50;;;;;;;4.22;1.67;;;;;;;;;;5114827;28;20031;-64
2022/11/08 14:59:17;;;;;;;5.82;1.60;;;;;;;;;;5114885;28;20019;-64
2022/11/08 15:01:45;;;;;;;3.30;1.88;;;;;;;;;;5115135;28;20080;-63
2022/11/08 15:04:13;;;;;;;9.48;1.85;;;;;;;;;;5114265;28;20022;-63
2022/11/08 15:06:41;;;;;;;3.83;1.70;;;;;;;;;;5096901;28;20493;-63
2022/11/08 15:09:16;;;;;;;7.72;2.20;;;;;;;;;;5094111;28;20589;-63
2022/11/08 15:11:42;;;;;;;9.02;2.30;;;;;;;;;;5114651;28;20037;-64
2022/11/08 15:14:16;;;;;;;4.38;1.80;;;;;;;;;;5113879;28;20515;-64
2022/11/08 15:16:44;;;;;;;4.65;2.55;;;;;;;;;;5111674;28;20092;-64
2022/11/08 15:19:37;;;;;;;6.07;2.03;;;;;;;;;;5113021;28;20019;-64